Time;durP1;ratioP1;P1;durP2;ratioP2;P2;SDS_P1;SDS_P2;PMS_P1;PMS_P2;Temp;Humidity;BMP_temperature;BMP_pressure;BME280_temperature;BME280_humidity;BME280_pressure;Samples;Min_cycle;Max_cycle;Signal;HPM_P1;HPM_P2
2022/02/17 00:02:13;;;;;;;1.33;0.70;;;;;;;;;;5020384;28;20677;-68
2022/02/17 00:04:43;;;;;;;2.17;0.60;;;;;;;;;;5024991;28;20287;-68
2022/02/17 00:07:15;;;;;;;1.13;0.70;;;;;;;;;;5008588;28;20223;-67
2022/02/17 00:09:48;;;;;;;1.77;0.77;;;;;;;;;;5012357;28;20202;-68
2022/02/17 00:12:16;;;;;;;1.60;0.80;;;;;;;;;;5018724;28;20223;-68
2022/02/17 00:14:49;;;;;;;1.07;0.70;;;;;;;;;;5027115;28;20273;-69
2022/02/17 00:17:20;;;;;;;1.47;0.80;;;;;;;;;;5021831;28;20199;-68
2022/02/17 00:19:53;;;;;;;1.90;1.10;;;;;;;;;;5015362;28;20208;-68
2022/02/17 00:22:36;;;;;;;1.40;0.47;;;;;;;;;;5008353;28;20291;-68
2022/02/17 00:25:04;;;;;;;1.90;0.70;;;;;;;;;;4989024;28;20212;-68
2022/02/17 00:27:34;;;;;;;1.57;0.60;;;;;;;;;;5022974;28;20261;-69
2022/02/17 00:30:08;;;;;;;0.87;0.60;;;;;;;;;;5024068;28;20207;-68
2022/02/17 00:32:41;;;;;;;1.13;0.70;;;;;;;;;;5020582;28;20215;-68
2022/02/17 00:35:15;;;;;;;0.80;0.57;;;;;;;;;;5007513;28;20206;-68
2022/02/17 00:37:46;;;;;;;1.03;0.57;;;;;;;;;;5020815;28;20202;-67
2022/02/17 00:40:15;;;;;;;2.03;0.93;;;;;;;;;;5022981;28;20199;-68
2022/02/17 00:42:48;;;;;;;1.30;0.90;;;;;;;;;;5014519;28;20258;-68
2022/02/17 00:45:20;;;;;;;1.20;0.80;;;;;;;;;;5025418;28;20856;-68
2022/02/17 00:47:52;;;;;;;1.27;0.67;;;;;;;;;;5018498;28;20310;-68
2022/02/17 00:50:34;;;;;;;1.13;0.63;;;;;;;;;;5024583;28;20285;-68
2022/02/17 00:53:09;;;;;;;1.10;0.77;;;;;;;;;;5019477;28;20218;-68
2022/02/17 00:55:36;;;;;;;1.17;0.60;;;;;;;;;;5009966;28;20736;-67
2022/02/17 00:58:08;;;;;;;1.70;0.90;;;;;;;;;;5006215;28;20672;-67
2022/02/17 01:00:39;;;;;;;1.43;0.77;;;;;;;;;;5020921;28;20208;-68
2022/02/17 01:03:09;;;;;;;1.53;0.70;;;;;;;;;;5031328;28;20202;-68
2022/02/17 01:05:42;;;;;;;2.23;0.90;;;;;;;;;;5024985;28;20198;-69
2022/02/17 01:08:14;;;;;;;1.47;0.90;;;;;;;;;;5024060;28;20211;-68
2022/02/17 01:10:48;;;;;;;2.17;0.90;;;;;;;;;;5026183;28;20184;-68
2022/02/17 01:13:17;;;;;;;1.23;1.00;;;;;;;;;;5029916;28;20297;-69
2022/02/17 01:15:47;;;;;;;2.13;0.93;;;;;;;;;;5011057;28;20203;-69
2022/02/17 01:18:18;;;;;;;3.23;1.27;;;;;;;;;;5030310;28;20198;-68
2022/02/17 01:20:55;;;;;;;2.17;1.10;;;;;;;;;;5009353;28;20231;-68
2022/02/17 01:23:24;;;;;;;2.37;1.10;;;;;;;;;;5026228;28;20198;-69
2022/02/17 01:26:00;;;;;;;3.03;1.20;;;;;;;;;;5021256;28;20222;-68
2022/02/17 01:28:33;;;;;;;3.27;1.20;;;;;;;;;;5021883;28;20199;-69
2022/02/17 01:31:04;;;;;;;2.87;1.10;;;;;;;;;;5022519;28;20340;-68
2022/02/17 01:33:41;;;;;;;2.30;1.27;;;;;;;;;;5023576;28;20195;-69
2022/02/17 01:36:19;;;;;;;4.37;1.30;;;;;;;;;;5024957;28;20250;-68
2022/02/17 01:38:52;;;;;;;3.33;1.40;;;;;;;;;;5027353;28;20214;-67
2022/02/17 01:41:25;;;;;;;4.93;1.20;;;;;;;;;;5026017;28;20264;-68
2022/02/17 01:43:53;;;;;;;3.33;1.30;;;;;;;;;;5026555;28;20207;-68
2022/02/17 01:46:36;;;;;;;3.60;1.30;;;;;;;;;;5022874;28;20245;-67
2022/02/17 01:49:06;;;;;;;4.43;1.43;;;;;;;;;;5005838;28;20206;-68
2022/02/17 01:51:39;;;;;;;3.37;1.67;;;;;;;;;;4998168;28;20238;-68
2022/02/17 01:54:11;;;;;;;3.47;1.40;;;;;;;;;;5020324;28;20278;-68
2022/02/17 01:56:42;;;;;;;5.00;1.70;;;;;;;;;;5021063;28;20681;-68
2022/02/17 01:59:19;;;;;;;4.20;2.10;;;;;;;;;;5022991;28;20210;-69
2022/02/17 02:01:49;;;;;;;5.17;2.03;;;;;;;;;;5016743;28;20208;-68
2022/02/17 02:04:20;;;;;;;5.77;2.00;;;;;;;;;;5012257;28;20287;-69
2022/02/17 02:06:49;;;;;;;4.90;1.73;;;;;;;;;;5011330;28;20700;-68
2022/02/17 02:09:20;;;;;;;5.40;2.10;;;;;;;;;;5009379;28;20203;-68
2022/02/17 02:11:52;;;;;;;5.43;1.93;;;;;;;;;;5027515;28;20301;-69
2022/02/17 02:14:25;;;;;;;4.93;1.77;;;;;;;;;;5021194;28;20629;-69
2022/02/17 02:16:58;;;;;;;5.40;1.93;;;;;;;;;;5021268;28;20195;-68
2022/02/17 02:19:28;;;;;;;7.70;2.33;;;;;;;;;;5021955;28;20195;-69
2022/02/17 02:21:56;;;;;;;4.50;1.83;;;;;;;;;;5023825;28;20208;-69
2022/02/17 02:24:28;;;;;;;6.00;1.80;;;;;;;;;;5025364;28;20219;-69
2022/02/17 02:27:01;;;;;;;7.07;2.47;;;;;;;;;;5024606;28;20210;-69
2022/02/17 02:29:34;;;;;;;5.73;2.30;;;;;;;;;;5026441;28;20224;-69
2022/02/17 02:32:04;;;;;;;6.37;2.37;;;;;;;;;;5021390;28;20221;-69
2022/02/17 02:34:38;;;;;;;4.33;2.00;;;;;;;;;;5021061;28;20201;-69
2022/02/17 02:37:08;;;;;;;5.87;2.50;;;;;;;;;;4999563;28;20218;-69
2022/02/17 02:39:38;;;;;;;5.73;2.47;;;;;;;;;;5029458;28;20195;-68
2022/02/17 02:42:08;;;;;;;5.50;2.43;;;;;;;;;;5021369;28;20207;-69
2022/02/17 02:44:56;;;;;;;5.80;2.53;;;;;;;;;;5025535;28;20207;-68
2022/02/17 02:47:26;;;;;;;5.97;2.27;;;;;;;;;;5012063;28;20232;-69
2022/02/17 02:49:58;;;;;;;10.17;3.03;;;;;;;;;;5025014;28;20211;-69
2022/02/17 02:52:34;;;;;;;7.33;2.37;;;;;;;;;;5018990;28;20218;-69
2022/02/17 02:55:06;;;;;;;7.70;2.40;;;;;;;;;;5015299;28;20210;-68
2022/02/17 02:57:33;;;;;;;7.67;3.17;;;;;;;;;;5022282;28;20254;-69
2022/02/17 03:00:01;;;;;;;6.67;2.40;;;;;;;;;;5019416;28;20215;-69
2022/02/17 03:02:32;;;;;;;7.13;2.93;;;;;;;;;;5024371;28;20261;-69
2022/02/17 03:05:03;;;;;;;5.73;2.40;;;;;;;;;;5018636;28;20203;-68
2022/02/17 03:07:32;;;;;;;5.63;2.60;;;;;;;;;;5022231;28;20198;-69
2022/02/17 03:10:04;;;;;;;7.50;2.57;;;;;;;;;;5021713;28;20218;-68
2022/02/17 03:12:39;;;;;;;8.53;2.80;;;;;;;;;;5021968;28;20297;-68
2022/02/17 03:15:07;;;;;;;8.03;2.63;;;;;;;;;;5020961;28;20192;-68
2022/02/17 03:17:37;;;;;;;5.90;2.53;;;;;;;;;;5008972;28;20644;-68
2022/02/17 03:20:07;;;;;;;7.77;2.47;;;;;;;;;;5006165;28;20237;-69
2022/02/17 03:22:47;;;;;;;7.10;2.73;;;;;;;;;;5025213;28;20202;-68
2022/02/17 03:25:20;;;;;;;8.43;2.90;;;;;;;;;;5025401;28;20852;-69
2022/02/17 03:27:49;;;;;;;7.07;3.00;;;;;;;;;;5030428;28;20214;-68
2022/02/17 03:30:19;;;;;;;9.10;3.27;;;;;;;;;;5023999;28;20198;-69
2022/02/17 03:32:49;;;;;;;10.20;3.20;;;;;;;;;;5010107;28;20262;-69
2022/02/17 03:35:20;;;;;;;7.93;3.20;;;;;;;;;;5020331;28;20234;-69
2022/02/17 03:38:05;;;;;;;8.10;3.03;;;;;;;;;;5025339;28;20289;-68
2022/02/17 03:40:37;;;;;;;8.77;3.23;;;;;;;;;;5026964;28;20199;-68
2022/02/17 03:43:07;;;;;;;8.10;2.70;;;;;;;;;;5025630;28;20765;-68
2022/02/17 03:45:36;;;;;;;6.63;2.57;;;;;;;;;;5024071;28;20215;-69
2022/02/17 03:48:07;;;;;;;9.03;3.07;;;;;;;;;;5023589;28;20321;-69
2022/02/17 03:50:40;;;;;;;10.27;2.77;;;;;;;;;;5006784;28;20207;-69
2022/02/17 03:53:11;;;;;;;8.40;3.23;;;;;;;;;;5024924;28;20238;-68
2022/02/17 03:55:42;;;;;;;8.93;2.93;;;;;;;;;;5026037;28;20221;-70
2022/02/17 03:59:00;;;;;;;9.93;3.27;;;;;;;;;;5026279;28;20243;-69
2022/02/17 04:01:05;;;;;;;9.10;3.40;;;;;;;;;;5022867;28;20305;-69
2022/02/17 04:03:36;;;;;;;8.47;3.20;;;;;;;;;;5005441;28;20220;-69
2022/02/17 04:06:10;;;;;;;9.47;3.20;;;;;;;;;;5031268;28;20206;-69
2022/02/17 04:08:40;;;;;;;10.07;3.60;;;;;;;;;;5022884;28;20204;-69
2022/02/17 04:11:10;;;;;;;9.47;3.40;;;;;;;;;;5004843;28;20228;-69
2022/02/17 04:13:40;;;;;;;9.73;3.20;;;;;;;;;;5013073;28;20216;-69
2022/02/17 04:16:09;;;;;;;8.37;2.83;;;;;;;;;;5023694;28;20621;-69
2022/02/17 04:18:39;;;;;;;9.77;3.60;;;;;;;;;;5020319;28;20205;-68
2022/02/17 04:21:10;;;;;;;8.07;3.10;;;;;;;;;;5007547;28;20207;-68
2022/02/17 04:23:44;;;;;;;9.40;3.17;;;;;;;;;;5005628;28;20211;-69
2022/02/17 04:26:21;;;;;;;10.37;3.00;;;;;;;;;;5023432;28;20207;-69
2022/02/17 04:28:57;;;;;;;7.10;3.00;;;;;;;;;;5017353;28;20194;-70
2022/02/17 04:31:36;;;;;;;9.03;3.20;;;;;;;;;;5025650;28;20207;-69
2022/02/17 04:34:09;;;;;;;9.23;3.17;;;;;;;;;;5024147;28;20211;-68
2022/02/17 04:36:44;;;;;;;10.17;3.27;;;;;;;;;;5022503;28;20764;-68
2022/02/17 04:39:15;;;;;;;8.27;3.07;;;;;;;;;;5023644;28;20210;-69
2022/02/17 04:44:34;;;;;;;9.07;3.20;;;;;;;;;;5027413;28;20203;-69
2022/02/17 04:47:09;;;;;;;8.33;3.43;;;;;;;;;;5017713;28;20255;-69
2022/02/17 04:49:39;;;;;;;8.47;3.30;;;;;;;;;;5027046;28;20680;-68
2022/02/17 04:52:19;;;;;;;7.70;2.97;;;;;;;;;;5006612;28;20223;-69
2022/02/17 04:55:03;;;;;;;9.77;3.40;;;;;;;;;;5016962;28;20214;-69
2022/02/17 04:57:33;;;;;;;10.63;4.20;;;;;;;;;;5019229;28;20223;-68
2022/02/17 05:00:04;;;;;;;11.07;3.03;;;;;;;;;;5027489;28;20207;-69
2022/02/17 05:02:47;;;;;;;9.63;3.50;;;;;;;;;;5020526;28;20246;-69
2022/02/17 05:05:19;;;;;;;9.90;3.50;;;;;;;;;;5026349;28;20631;-70
2022/02/17 05:07:50;;;;;;;9.87;3.20;;;;;;;;;;5005042;28;20282;-69
2022/02/17 05:10:21;;;;;;;9.03;3.30;;;;;;;;;;5024426;28;20288;-69
2022/02/17 05:12:55;;;;;;;8.90;3.30;;;;;;;;;;5018002;28;20238;-69
2022/02/17 05:15:40;;;;;;;12.87;4.13;;;;;;;;;;5019618;28;20198;-69
2022/02/17 05:18:11;;;;;;;11.60;4.00;;;;;;;;;;5025850;28;20210;-70
2022/02/17 05:20:41;;;;;;;9.43;3.70;;;;;;;;;;5018497;28;20241;-69
2022/02/17 05:23:11;;;;;;;9.90;3.47;;;;;;;;;;5019883;28;20676;-69
2022/02/17 05:25:40;;;;;;;11.20;3.90;;;;;;;;;;5007777;28;20195;-69
2022/02/17 05:28:12;;;;;;;8.70;3.90;;;;;;;;;;5023428;28;20197;-69
2022/02/17 05:30:44;;;;;;;10.90;3.77;;;;;;;;;;5019338;28;20275;-69
2022/02/17 05:33:16;;;;;;;10.93;4.37;;;;;;;;;;5026440;28;20225;-69
2022/02/17 05:35:52;;;;;;;12.03;4.67;;;;;;;;;;5013510;28;20214;-69
2022/02/17 05:38:25;;;;;;;11.00;4.43;;;;;;;;;;5021005;28;20618;-69
2022/02/17 05:40:53;;;;;;;10.70;4.27;;;;;;;;;;5016933;28;20203;-69
2022/02/17 05:43:24;;;;;;;14.77;4.67;;;;;;;;;;5022784;28;20880;-69
2022/02/17 05:45:55;;;;;;;13.47;4.60;;;;;;;;;;5018908;28;20198;-69
2022/02/17 05:48:28;;;;;;;11.70;3.97;;;;;;;;;;5021715;28;20216;-69
2022/02/17 05:51:05;;;;;;;13.77;4.73;;;;;;;;;;5020565;28;20408;-69
2022/02/17 05:53:45;;;;;;;11.77;3.60;;;;;;;;;;5020354;28;20886;-69
2022/02/17 05:56:18;;;;;;;10.50;4.23;;;;;;;;;;5018747;28;20203;-68
2022/02/17 05:58:48;;;;;;;12.23;5.27;;;;;;;;;;5017544;28;20210;-69
2022/02/17 06:01:16;;;;;;;11.23;3.80;;;;;;;;;;5016898;28;20210;-70
2022/02/17 06:03:47;;;;;;;12.60;4.03;;;;;;;;;;5027445;28;20215;-69
2022/02/17 06:06:18;;;;;;;11.53;4.40;;;;;;;;;;5022126;28;20210;-69
2022/02/17 06:08:49;;;;;;;10.83;4.10;;;;;;;;;;5018478;28;20290;-70
2022/02/17 06:11:19;;;;;;;10.50;3.47;;;;;;;;;;5029084;28;20664;-68
2022/02/17 06:13:49;;;;;;;14.10;4.67;;;;;;;;;;5022974;28;20222;-69
2022/02/17 06:16:19;;;;;;;12.30;4.27;;;;;;;;;;5017527;28;20518;-69
2022/02/17 06:18:49;;;;;;;13.00;4.87;;;;;;;;;;5017413;28;20211;-69
2022/02/17 06:21:23;;;;;;;16.63;5.83;;;;;;;;;;5024948;28;20199;-69
2022/02/17 06:24:08;;;;;;;17.97;5.57;;;;;;;;;;5017082;28;20257;-69
2022/02/17 06:26:42;;;;;;;20.33;6.93;;;;;;;;;;5021237;28;20206;-69
2022/02/17 06:29:11;;;;;;;15.37;5.10;;;;;;;;;;5008609;28;20195;-69
2022/02/17 06:31:44;;;;;;;14.17;5.23;;;;;;;;;;5024740;28;20276;-69
2022/02/17 06:34:15;;;;;;;14.87;5.00;;;;;;;;;;5021548;28;20854;-69
2022/02/17 06:36:46;;;;;;;16.43;5.63;;;;;;;;;;5019196;28;20229;-68
2022/02/17 06:39:21;;;;;;;18.77;5.60;;;;;;;;;;5021836;28;20219;-70
2022/02/17 06:41:54;;;;;;;13.73;4.87;;;;;;;;;;5035495;28;20294;-69
2022/02/17 06:44:27;;;;;;;17.00;5.60;;;;;;;;;;5006706;28;20672;-69
2022/02/17 06:46:55;;;;;;;15.77;5.07;;;;;;;;;;5020987;28;20269;-69
2022/02/17 06:49:32;;;;;;;13.17;5.07;;;;;;;;;;5024584;28;20211;-68
2022/02/17 06:52:06;;;;;;;15.03;5.53;;;;;;;;;;5032352;28;20674;-68
2022/02/17 06:54:42;;;;;;;12.67;5.00;;;;;;;;;;5026343;28;20532;-68
2022/02/17 06:57:11;;;;;;;13.80;5.00;;;;;;;;;;4998292;28;20252;-68
2022/02/17 06:59:43;;;;;;;12.77;4.80;;;;;;;;;;5004361;28;20196;-68
2022/02/17 07:02:24;;;;;;;12.93;4.73;;;;;;;;;;5010443;28;20183;-69
2022/02/17 07:04:53;;;;;;;11.57;4.43;;;;;;;;;;5002710;28;20204;-68
2022/02/17 07:07:23;;;;;;;15.40;4.70;;;;;;;;;;5007656;28;20189;-68
2022/02/17 07:09:54;;;;;;;10.40;4.20;;;;;;;;;;5007221;28;20204;-68
2022/02/17 07:12:31;;;;;;;11.43;4.00;;;;;;;;;;4999633;28;20241;-70
2022/02/17 07:15:05;;;;;;;13.00;4.73;;;;;;;;;;5000005;28;20799;-69
2022/02/17 07:17:36;;;;;;;11.37;5.10;;;;;;;;;;5001841;28;20933;-70
2022/02/17 07:20:06;;;;;;;13.83;5.10;;;;;;;;;;5007232;28;20207;-71
2022/02/17 07:22:37;;;;;;;17.47;4.10;;;;;;;;;;4991086;28;20203;-70
2022/02/17 07:25:09;;;;;;;11.87;4.33;;;;;;;;;;5002693;28;20220;-69
2022/02/17 07:27:45;;;;;;;10.03;4.43;;;;;;;;;;4996626;28;20207;-69
2022/02/17 07:30:27;;;;;;;11.43;4.50;;;;;;;;;;4998792;28;20289;-68
2022/02/17 07:32:58;;;;;;;11.27;4.10;;;;;;;;;;4986727;28;20191;-67
2022/02/17 07:35:32;;;;;;;12.80;4.37;;;;;;;;;;5004013;28;20597;-69
2022/02/17 07:38:04;;;;;;;28.33;7.80;;;;;;;;;;4997988;28;20846;-72
2022/02/17 07:40:41;;;;;;;33.40;9.17;;;;;;;;;;4997345;28;20211;-69
2022/02/17 07:43:11;;;;;;;28.00;7.10;;;;;;;;;;5000336;28;20657;-70
2022/02/17 07:45:41;;;;;;;19.97;6.90;;;;;;;;;;5001807;28;20208;-71
2022/02/17 07:48:12;;;;;;;21.57;7.27;;;;;;;;;;4998941;28;20199;-71
2022/02/17 07:50:42;;;;;;;21.70;7.60;;;;;;;;;;4989093;28;20223;-69
2022/02/17 07:53:17;;;;;;;21.20;6.93;;;;;;;;;;4997186;28;20227;-67
2022/02/17 07:55:45;;;;;;;18.67;6.90;;;;;;;;;;5007619;28;20549;-67
2022/02/17 07:58:30;;;;;;;17.23;5.80;;;;;;;;;;5001662;28;20305;-70
2022/02/17 08:01:03;;;;;;;20.60;5.67;;;;;;;;;;5009781;28;20238;-70
2022/02/17 08:03:44;;;;;;;14.33;5.17;;;;;;;;;;5015930;28;20716;-71
2022/02/17 08:06:14;;;;;;;15.30;4.90;;;;;;;;;;5022957;28;20211;-71
2022/02/17 08:09:02;;;;;;;19.00;5.87;;;;;;;;;;5019873;28;20191;-72
2022/02/17 08:11:33;;;;;;;13.80;5.37;;;;;;;;;;4998218;28;20219;-70
2022/02/17 08:14:07;;;;;;;12.33;4.57;;;;;;;;;;5022497;28;20435;-71
2022/02/17 08:16:38;;;;;;;12.57;5.03;;;;;;;;;;5023606;28;20219;-68
2022/02/17 08:19:15;;;;;;;11.27;4.77;;;;;;;;;;5022521;28;20206;-69
2022/02/17 08:21:45;;;;;;;9.03;4.63;;;;;;;;;;5029659;28;20198;-70
2022/02/17 08:24:17;;;;;;;10.60;4.67;;;;;;;;;;5021243;28;20203;-72
2022/02/17 08:26:56;;;;;;;11.00;4.63;;;;;;;;;;5020826;28;20206;-69
2022/02/17 08:29:31;;;;;;;8.70;3.73;;;;;;;;;;5015704;28;20221;-69
2022/02/17 08:32:00;;;;;;;12.27;4.90;;;;;;;;;;5022170;28;20202;-69
2022/02/17 08:34:30;;;;;;;9.07;3.63;;;;;;;;;;5021536;28;20211;-70
2022/02/17 08:37:02;;;;;;;9.27;4.03;;;;;;;;;;5018003;28;20241;-67
2022/02/17 08:39:45;;;;;;;7.67;3.87;;;;;;;;;;5024197;28;20217;-69
2022/02/17 08:42:15;;;;;;;9.97;4.27;;;;;;;;;;5021537;28;20663;-69
2022/02/17 08:44:48;;;;;;;6.40;3.03;;;;;;;;;;5023021;28;20239;-70
2022/02/17 08:47:22;;;;;;;7.77;3.40;;;;;;;;;;5026721;28;20195;-69
2022/02/17 08:49:53;;;;;;;8.30;3.20;;;;;;;;;;5018193;28;20202;-69
2022/02/17 08:52:25;;;;;;;9.47;3.10;;;;;;;;;;5009324;28;20223;-67
2022/02/17 08:54:59;;;;;;;9.60;3.53;;;;;;;;;;5017135;28;20227;-69
2022/02/17 08:57:29;;;;;;;6.60;3.20;;;;;;;;;;4983665;28;20235;-70
2022/02/17 09:00:01;;;;;;;7.53;3.30;;;;;;;;;;5006484;28;20678;-70
2022/02/17 09:02:47;;;;;;;7.13;3.17;;;;;;;;;;4989652;28;20292;-72
2022/02/17 09:05:18;;;;;;;7.20;2.90;;;;;;;;;;4999558;28;20210;-71
2022/02/17 09:07:51;;;;;;;6.00;2.70;;;;;;;;;;5005757;28;20192;-72
2022/02/17 09:10:23;;;;;;;7.83;3.03;;;;;;;;;;5003103;28;20192;-70
2022/02/17 09:12:55;;;;;;;6.57;2.93;;;;;;;;;;4989079;28;20195;-71
2022/02/17 09:15:25;;;;;;;6.00;2.93;;;;;;;;;;5001789;28;20248;-69
2022/02/17 09:17:56;;;;;;;7.27;2.77;;;;;;;;;;4983963;28;20623;-70
2022/02/17 09:20:29;;;;;;;8.07;2.67;;;;;;;;;;4988379;28;20204;-70
2022/02/17 09:22:57;;;;;;;5.40;2.80;;;;;;;;;;5005150;28;20208;-71
2022/02/17 09:25:30;;;;;;;5.20;2.57;;;;;;;;;;5001933;28;20200;-70
2022/02/17 09:27:59;;;;;;;6.30;2.40;;;;;;;;;;4997785;28;20215;-69
2022/02/17 09:30:30;;;;;;;5.23;2.50;;;;;;;;;;5001317;28;20204;-68
2022/02/17 09:32:58;;;;;;;4.37;2.40;;;;;;;;;;4980943;28;20200;-70
2022/02/17 09:35:30;;;;;;;6.23;2.90;;;;;;;;;;5000064;28;20228;-69
2022/02/17 09:37:58;;;;;;;4.67;2.40;;;;;;;;;;5005409;28;20191;-69
2022/02/17 09:40:28;;;;;;;6.40;2.40;;;;;;;;;;5006696;28;20282;-70
2022/02/17 09:42:57;;;;;;;5.37;2.47;;;;;;;;;;5000248;28;20211;-71
2022/02/17 09:45:29;;;;;;;3.63;2.20;;;;;;;;;;4998519;28;20291;-72
2022/02/17 09:48:00;;;;;;;4.60;2.30;;;;;;;;;;4998084;28;20643;-71
2022/02/17 09:50:31;;;;;;;3.83;2.00;;;;;;;;;;4999761;28;20208;-67
2022/02/17 09:53:02;;;;;;;5.10;2.40;;;;;;;;;;4998803;28;20763;-69
2022/02/17 09:55:33;;;;;;;4.17;2.17;;;;;;;;;;4988299;28;20219;-71
2022/02/17 09:58:03;;;;;;;3.73;2.10;;;;;;;;;;4984941;28;20235;-70
2022/02/17 10:00:45;;;;;;;4.63;2.33;;;;;;;;;;5005450;28;20219;-68
2022/02/17 10:03:32;;;;;;;4.80;2.27;;;;;;;;;;5003552;28;20828;-67
2022/02/17 10:06:29;;;;;;;5.47;2.27;;;;;;;;;;5001628;28;20553;-68
2022/02/17 10:09:07;;;;;;;4.53;2.20;;;;;;;;;;5004831;28;20200;-65
2022/02/17 10:11:54;;;;;;;4.23;2.40;;;;;;;;;;5008951;28;20208;-69
2022/02/17 10:14:26;;;;;;;6.20;2.23;;;;;;;;;;5006986;28;20222;-68
2022/02/17 10:17:16;;;;;;;6.13;2.80;;;;;;;;;;5002687;28;20224;-68
2022/02/17 10:19:50;;;;;;;6.80;2.03;;;;;;;;;;5007082;28;20203;-70
2022/02/17 10:22:35;;;;;;;4.47;2.00;;;;;;;;;;4989405;28;20208;-72
2022/02/17 10:25:10;;;;;;;7.23;1.97;;;;;;;;;;4990615;28;20266;-70
2022/02/17 10:27:48;;;;;;;3.57;2.20;;;;;;;;;;5005749;28;20203;-70
2022/02/17 10:30:20;;;;;;;4.80;2.27;;;;;;;;;;5004363;28;20211;-68
2022/02/17 10:33:03;;;;;;;4.93;2.33;;;;;;;;;;4995344;28;20196;-67
2022/02/17 10:35:36;;;;;;;5.37;2.17;;;;;;;;;;5004142;28;20215;-68
2022/02/17 10:38:25;;;;;;;3.43;1.93;;;;;;;;;;5004494;28;20215;-69
2022/02/17 10:40:55;;;;;;;4.20;2.27;;;;;;;;;;5009302;28;20195;-69
2022/02/17 10:43:32;;;;;;;6.90;2.20;;;;;;;;;;5001527;28;20211;-69
2022/02/17 10:46:05;;;;;;;3.83;2.20;;;;;;;;;;5009298;28;20622;-71
2022/02/17 10:48:48;;;;;;;4.30;1.90;;;;;;;;;;4975750;28;20203;-73
2022/02/17 10:51:19;;;;;;;2.80;1.60;;;;;;;;;;5007900;28;20210;-70
2022/02/17 10:54:00;;;;;;;5.13;1.77;;;;;;;;;;5004154;28;20722;-71
2022/02/17 10:56:40;;;;;;;4.13;1.50;;;;;;;;;;4999065;28;20309;-71
2022/02/17 11:00:00;;;;;;;3.27;1.70;;;;;;;;;;5005064;28;20207;-71
2022/02/17 11:01:58;;;;;;;3.17;1.60;;;;;;;;;;5027519;28;20279;-71
2022/02/17 11:04:29;;;;;;;3.63;1.40;;;;;;;;;;5024816;28;20637;-69
2022/02/17 11:07:00;;;;;;;3.97;1.90;;;;;;;;;;5023233;28;20222;-67
2022/02/17 11:09:33;;;;;;;4.60;1.60;;;;;;;;;;5025514;28;20286;-69
2022/02/17 11:12:04;;;;;;;4.33;1.67;;;;;;;;;;5029358;28;20281;-68
2022/02/17 11:14:44;;;;;;;5.00;1.80;;;;;;;;;;5018510;28;20219;-69
2022/02/17 11:17:23;;;;;;;3.70;2.00;;;;;;;;;;5024517;28;20235;-68
2022/02/17 11:19:54;;;;;;;3.80;1.60;;;;;;;;;;5021219;28;20741;-68
2022/02/17 11:22:43;;;;;;;3.13;1.37;;;;;;;;;;5025233;28;20226;-68
2022/02/17 11:25:14;;;;;;;3.20;1.40;;;;;;;;;;5021573;28;20687;-67
2022/02/17 11:28:02;;;;;;;2.57;1.40;;;;;;;;;;5024516;28;20282;-68
2022/02/17 11:30:42;;;;;;;2.70;1.40;;;;;;;;;;5022283;28;20226;-67
2022/02/17 11:33:22;;;;;;;3.70;1.70;;;;;;;;;;5018677;28;20223;-67
2022/02/17 11:36:25;;;;;;;3.30;1.50;;;;;;;;;;5028215;28;20265;-68
2022/02/17 11:39:06;;;;;;;4.80;1.60;;;;;;;;;;5023108;28;20199;-67
2022/02/17 11:41:38;;;;;;;3.13;1.43;;;;;;;;;;5011740;28;20224;-67
2022/02/17 11:44:21;;;;;;;3.80;1.60;;;;;;;;;;5010946;28;20198;-68
2022/02/17 11:47:06;;;;;;;4.07;1.50;;;;;;;;;;5027500;28;20218;-69
2022/02/17 11:49:49;;;;;;;2.77;1.20;;;;;;;;;;5024937;28;20199;-67
2022/02/17 11:52:20;;;;;;;3.57;1.43;;;;;;;;;;5027177;28;21218;-69
2022/02/17 11:55:26;;;;;;;3.42;1.92;;;;;;;;;;5003155;28;20446;-67
2022/02/17 11:57:57;;;;;;;2.83;1.30;;;;;;;;;;4943158;28;20238;-68
2022/02/17 12:00:41;;;;;;;3.87;1.97;;;;;;;;;;4941639;29;20268;-66
2022/02/17 12:03:11;;;;;;;3.17;1.70;;;;;;;;;;4936779;28;20621;-69
2022/02/17 12:05:44;;;;;;;4.60;1.63;;;;;;;;;;4948017;28;20754;-69
2022/02/17 12:08:24;;;;;;;3.40;1.30;;;;;;;;;;5005760;28;20208;-66
2022/02/17 12:10:54;;;;;;;6.73;1.93;;;;;;;;;;4997738;28;20191;-68
2022/02/17 12:13:28;;;;;;;5.37;1.70;;;;;;;;;;4999489;28;20207;-67
2022/02/17 12:15:59;;;;;;;6.67;1.33;;;;;;;;;;5009724;28;20215;-68
2022/02/17 12:18:40;;;;;;;2.67;1.40;;;;;;;;;;4998834;28;20222;-67
2022/02/17 12:21:10;;;;;;;3.57;1.73;;;;;;;;;;4988333;28;20324;-68
2022/02/17 12:23:40;;;;;;;4.00;1.90;;;;;;;;;;5005946;28;20196;-68
2022/02/17 12:26:11;;;;;;;5.27;2.13;;;;;;;;;;5006865;28;20212;-71
2022/02/17 12:28:59;;;;;;;5.67;1.97;;;;;;;;;;4996753;28;20215;-68
2022/02/17 12:31:38;;;;;;;4.80;1.70;;;;;;;;;;5007324;28;20214;-70
2022/02/17 12:34:09;;;;;;;3.70;1.83;;;;;;;;;;5003326;28;20653;-70
2022/02/17 12:36:41;;;;;;;5.93;2.70;;;;;;;;;;5007447;28;20203;-67
2022/02/17 12:39:14;;;;;;;5.70;3.10;;;;;;;;;;5006723;28;20205;-67
2022/02/17 12:42:04;;;;;;;5.53;2.93;;;;;;;;;;5007498;28;20223;-69
2022/02/17 12:44:41;;;;;;;4.90;2.27;;;;;;;;;;5001916;28;20196;-70
2022/02/17 12:47:18;;;;;;;6.70;2.67;;;;;;;;;;5004817;28;20221;-69
2022/02/17 12:49:52;;;;;;;5.90;2.30;;;;;;;;;;5004885;28;20226;-68
2022/02/17 12:52:24;;;;;;;4.90;2.20;;;;;;;;;;5009314;28;20211;-64
2022/02/17 12:54:57;;;;;;;6.67;2.23;;;;;;;;;;4999877;28;20262;-67
2022/02/17 12:57:32;;;;;;;4.67;2.40;;;;;;;;;;5010483;28;20222;-68
2022/02/17 13:00:02;;;;;;;9.43;2.73;;;;;;;;;;5016839;28;20213;-72
2022/02/17 13:02:41;;;;;;;4.67;2.20;;;;;;;;;;5014609;28;20294;-71
2022/02/17 13:05:20;;;;;;;6.20;2.30;;;;;;;;;;5015281;28;20827;-72
2022/02/17 13:07:56;;;;;;;7.13;2.47;;;;;;;;;;5002338;28;20199;-70
2022/02/17 13:10:38;;;;;;;4.17;2.07;;;;;;;;;;5012507;28;20211;-71
2022/02/17 13:13:11;;;;;;;4.53;2.00;;;;;;;;;;5011258;28;20708;-70
2022/02/17 13:15:42;;;;;;;5.40;2.10;;;;;;;;;;5020880;28;20802;-72
2022/02/17 13:18:13;;;;;;;6.63;2.40;;;;;;;;;;5024547;28;20649;-70
2022/02/17 13:20:44;;;;;;;6.20;1.97;;;;;;;;;;5005568;28;20237;-69
2022/02/17 13:23:23;;;;;;;6.77;2.27;;;;;;;;;;5026318;28;20210;-74
2022/02/17 13:25:50;;;;;;;5.43;2.30;;;;;;;;;;5021952;28;20279;-72
2022/02/17 13:28:18;;;;;;;4.77;2.10;;;;;;;;;;5026800;28;20214;-71
2022/02/17 13:30:48;;;;;;;13.10;1.93;;;;;;;;;;5016512;28;20298;-73
2022/02/17 13:33:21;;;;;;;4.50;1.73;;;;;;;;;;5027983;28;20211;-72
2022/02/17 13:35:57;;;;;;;5.13;1.60;;;;;;;;;;5019576;28;20264;-73
2022/02/17 13:38:31;;;;;;;3.53;1.63;;;;;;;;;;5027139;28;20206;-70
2022/02/17 13:41:02;;;;;;;3.93;1.70;;;;;;;;;;5014521;28;20206;-69
2022/02/17 13:43:43;;;;;;;6.60;1.63;;;;;;;;;;5026716;28;20196;-71
2022/02/17 13:46:15;;;;;;;6.83;1.60;;;;;;;;;;5022205;28;20183;-71
2022/02/17 13:48:45;;;;;;;5.17;1.87;;;;;;;;;;5024806;28;20206;-70
2022/02/17 13:51:29;;;;;;;5.57;1.70;;;;;;;;;;5022994;28;20296;-71
2022/02/17 13:54:01;;;;;;;4.17;2.33;;;;;;;;;;5023437;28;20222;-70
2022/02/17 13:56:32;;;;;;;5.13;1.80;;;;;;;;;;5016775;28;20247;-72
2022/02/17 13:59:03;;;;;;;3.27;1.40;;;;;;;;;;5026247;28;20638;-73
2022/02/17 14:01:40;;;;;;;4.60;1.80;;;;;;;;;;5020988;28;20214;-72
2022/02/17 14:04:16;;;;;;;3.43;1.43;;;;;;;;;;5025663;28;20206;-70
2022/02/17 14:07:02;;;;;;;3.10;1.30;;;;;;;;;;5020762;28;20229;-72
2022/02/17 14:09:40;;;;;;;4.93;1.77;;;;;;;;;;5008892;28;20767;-73
2022/02/17 14:12:33;;;;;;;3.53;1.60;;;;;;;;;;5013435;28;20218;-73
2022/02/17 14:15:10;;;;;;;4.60;1.47;;;;;;;;;;5018480;28;20222;-75
2022/02/17 14:17:47;;;;;;;3.83;1.50;;;;;;;;;;5025062;28;20236;-74
2022/02/17 14:20:18;;;;;;;6.17;1.87;;;;;;;;;;5025723;28;20261;-71
2022/02/17 14:22:47;;;;;;;4.73;1.60;;;;;;;;;;5024279;28;20203;-70
2022/02/17 14:25:16;;;;;;;5.13;2.07;;;;;;;;;;5023454;28;20210;-72
2022/02/17 14:27:47;;;;;;;6.30;1.63;;;;;;;;;;5027955;28;20201;-71
2022/02/17 14:30:17;;;;;;;2.93;1.40;;;;;;;;;;5022651;28;20230;-71
2022/02/17 14:32:50;;;;;;;5.80;1.57;;;;;;;;;;5023444;28;20207;-72
2022/02/17 14:35:20;;;;;;;3.30;1.63;;;;;;;;;;5026516;28;20555;-74
2022/02/17 14:37:52;;;;;;;2.83;1.53;;;;;;;;;;5003142;28;20635;-74
2022/02/17 14:40:22;;;;;;;3.90;1.70;;;;;;;;;;5020355;28;20250;-72
2022/02/17 14:42:50;;;;;;;3.80;1.73;;;;;;;;;;5007842;28;20781;-75
2022/02/17 14:45:19;;;;;;;3.53;1.63;;;;;;;;;;5018338;28;20227;-74
2022/02/17 14:47:48;;;;;;;3.43;1.57;;;;;;;;;;5012943;28;20643;-71
2022/02/17 14:50:19;;;;;;;4.33;1.90;;;;;;;;;;5018728;28;20639;-70
2022/02/17 14:52:50;;;;;;;3.47;1.60;;;;;;;;;;5022499;28;20211;-71
2022/02/17 14:55:25;;;;;;;5.00;1.70;;;;;;;;;;5025931;28;20223;-72
2022/02/17 14:57:55;;;;;;;2.77;1.57;;;;;;;;;;5009440;28;20763;-70
2022/02/17 15:00:26;;;;;;;3.50;1.80;;;;;;;;;;5004161;28;20217;-71
2022/02/17 15:02:58;;;;;;;3.97;1.47;;;;;;;;;;5007173;28;20183;-70
2022/02/17 15:05:30;;;;;;;3.23;1.17;;;;;;;;;;5021538;28;20671;-72
2022/02/17 15:08:01;;;;;;;3.10;1.40;;;;;;;;;;5017377;28;20203;-70
2022/02/17 15:10:31;;;;;;;2.67;1.37;;;;;;;;;;5016769;28;20235;-71
2022/02/17 15:13:04;;;;;;;5.87;1.57;;;;;;;;;;5016133;28;20266;-74
2022/02/17 15:15:37;;;;;;;4.63;1.70;;;;;;;;;;4987803;28;20223;-74
2022/02/17 15:18:09;;;;;;;2.90;1.27;;;;;;;;;;5013852;28;20208;-71
2022/02/17 15:20:53;;;;;;;2.40;1.40;;;;;;;;;;5005964;28;20202;-73
2022/02/17 15:23:24;;;;;;;2.90;1.13;;;;;;;;;;5006242;28;20214;-71